Norris Observed Data For Previous 48 Hours

Caption
Day and Hour Reservoir Elevation (behind dam)* Tailwater Elevation (below dam)* Average Hourly Discharge*
7/21/2017 2 AM EDT 1,019.54 822.31 284
7/21/2017 3 AM EDT 1,019.52 821.85 20
7/21/2017 4 AM EDT 1,019.51 821.65 20
7/21/2017 5 AM EDT 1,019.52 821.49 20
7/21/2017 6 AM EDT 1,019.51 821.32 20
7/21/2017 7 AM EDT 1,019.52 821.17 20
7/21/2017 8 AM EDT 1,019.51 821.03 20
7/21/2017 9 AM EDT 1,019.51 820.90 20
7/21/2017 10 AM EDT 1,019.53 820.78 20
7/21/2017 11 AM EDT 1,019.50 821.79 90
7/21/2017 12 PM EDT 1,019.50 824.45 3,455
7/21/2017 1 PM EDT 1,019.51 824.84 3,450
7/21/2017 2 PM EDT 1,019.51 824.81 3,454
7/21/2017 3 PM EDT 1,019.51 824.78 3,455
7/21/2017 4 PM EDT 1,019.51 824.74 3,452
7/21/2017 5 PM EDT 1,019.48 824.79 3,458
7/21/2017 6 PM EDT 1,019.48 824.77 3,449
7/21/2017 7 PM EDT 1,019.47 824.81 3,446
7/21/2017 8 PM EDT 1,019.46 824.75 3,452
7/21/2017 9 PM EDT 1,019.45 824.80 3,468
7/21/2017 10 PM EDT 1,019.45 824.77 3,458
7/21/2017 11 PM EDT 1,019.45 824.79 3,456
7/22/2017 12 AM EDT 1,019.44 824.82 3,449
7/22/2017 1 AM EDT 1,019.44 824.76 3,459
7/22/2017 2 AM EDT 1,019.45 822.25 157
7/22/2017 3 AM EDT 1,019.44 821.82 20
7/22/2017 4 AM EDT 1,019.42 822.45 93
7/22/2017 5 AM EDT 1,019.45 823.58 3,201
7/22/2017 6 AM EDT 1,019.43 822.11 20
7/22/2017 7 AM EDT 1,019.43 821.76 20
7/22/2017 8 AM EDT 1,019.43 821.58 20
7/22/2017 9 AM EDT 1,019.43 821.41 20
7/22/2017 10 AM EDT 1,019.41 821.26 20
7/22/2017 11 AM EDT 1,019.43 821.10 20
7/22/2017 12 PM EDT 1,019.43 820.96 20
7/22/2017 1 PM EDT 1,019.41 821.89 85
7/22/2017 2 PM EDT 1,019.42 824.69 3,453
7/22/2017 3 PM EDT 1,019.41 826.73 5,787
7/22/2017 4 PM EDT 1,019.41 826.79 6,704
7/22/2017 5 PM EDT 1,019.39 826.75 6,697
7/22/2017 6 PM EDT 1,019.36 826.53 6,886
7/22/2017 7 PM EDT 1,019.36 825.08 5,225
7/22/2017 8 PM EDT 1,019.34 824.95 4,399
7/22/2017 9 PM EDT 1,019.35 824.97 4,407
7/22/2017 10 PM EDT 1,019.34 825.04 4,419
7/22/2017 11 PM EDT 1,019.32 825.03 4,442
7/23/2017 12 AM EDT 1,019.33 825.03 4,443

Elevations are in feet above sea level. Discharges are in cubic feet per second and are reported at the end of the hour.